createdAt,value
2023-05-10T00:01:19.903Z,14.66
2023-05-10T00:03:50.305Z,14.64
2023-05-10T00:06:21.860Z,14.63
2023-05-10T00:08:52.222Z,14.60
2023-05-10T00:11:23.149Z,14.72
2023-05-10T00:13:56.303Z,14.77
2023-05-10T00:16:29.209Z,14.63
2023-05-10T00:18:59.621Z,14.56
2023-05-10T00:21:31.424Z,14.52
2023-05-10T00:24:03.577Z,14.51
2023-05-10T00:26:33.677Z,14.54
2023-05-10T00:29:04.567Z,14.47
2023-05-10T00:31:37.433Z,14.54
2023-05-10T00:34:07.670Z,14.37
2023-05-10T00:36:37.967Z,14.38
2023-05-10T00:39:08.169Z,14.39
2023-05-10T00:41:38.299Z,14.37
2023-05-10T00:44:10.297Z,14.37
2023-05-10T00:46:43.670Z,14.31
2023-05-10T00:49:16.465Z,14.26
2023-05-10T00:51:48.214Z,14.26
2023-05-10T00:54:23.189Z,14.08
2023-05-10T00:56:55.645Z,14.13
2023-05-10T00:59:26.627Z,14.19
2023-05-10T01:01:59.556Z,14.16
2023-05-10T01:04:32.824Z,14.10
2023-05-10T01:07:05.848Z,14.00
2023-05-10T01:09:36.890Z,14.04
2023-05-10T01:12:09.856Z,14.03
2023-05-10T01:14:40.207Z,13.96
2023-05-10T01:17:14.671Z,14.08
2023-05-10T01:19:45.818Z,14.02
2023-05-10T01:22:31.224Z,14.04
2023-05-10T01:25:23.253Z,14.12
2023-05-10T01:28:30.475Z,13.90
2023-05-10T01:31:18.845Z,13.72
2023-05-10T01:33:57.780Z,13.77
2023-05-10T01:36:33.542Z,13.89
2023-05-10T01:39:14.492Z,13.96
2023-05-10T01:41:57.283Z,13.80
2023-05-10T01:44:36.873Z,13.74
2023-05-10T01:47:11.828Z,13.76
2023-05-10T01:49:47.802Z,13.81
2023-05-10T01:52:21.540Z,13.81
2023-05-10T01:54:57.054Z,13.94
2023-05-10T01:57:30.760Z,14.02
2023-05-10T02:00:02.007Z,13.97
2023-05-10T02:02:37.966Z,13.83
2023-05-10T02:05:16.764Z,13.74
2023-05-10T02:07:48.430Z,13.56
2023-05-10T02:10:19.240Z,13.31
2023-05-10T02:12:52.774Z,13.38
2023-05-10T02:15:29.821Z,13.22
2023-05-10T02:18:01.430Z,13.20
2023-05-10T02:20:38.348Z,13.13
2023-05-10T02:23:09.620Z,13.26
2023-05-10T02:25:40.729Z,13.30
2023-05-10T02:28:13.363Z,13.28
2023-05-10T02:30:44.272Z,13.43
2023-05-10T02:33:18.337Z,13.50
2023-05-10T02:35:53.000Z,13.49
2023-05-10T02:38:24.760Z,13.53
2023-05-10T02:40:55.421Z,13.65
2023-05-10T02:43:27.310Z,13.65
2023-05-10T02:46:01.107Z,13.62
2023-05-10T02:48:31.572Z,13.63
2023-05-10T02:51:09.153Z,13.67
2023-05-10T02:53:43.456Z,13.67
2023-05-10T02:56:18.428Z,13.50
2023-05-10T02:58:48.617Z,13.48
2023-05-10T03:01:18.841Z,13.48
2023-05-10T03:03:49.568Z,13.50
2023-05-10T03:06:22.722Z,13.38
2023-05-10T03:08:53.111Z,13.31
2023-05-10T03:11:40.547Z,13.25
2023-05-10T03:14:26.270Z,13.22
2023-05-10T03:17:01.571Z,13.25
2023-05-10T03:19:37.327Z,12.93
2023-05-10T03:22:14.388Z,12.94
2023-05-10T03:24:46.024Z,13.03
2023-05-10T03:27:18.238Z,12.90
2023-05-10T03:29:52.391Z,12.82
2023-05-10T03:32:25.804Z,12.55
2023-05-10T03:34:56.138Z,12.64
2023-05-10T03:37:30.920Z,12.73
2023-05-10T03:40:03.247Z,12.73
2023-05-10T03:42:36.199Z,12.78
2023-05-10T03:45:06.783Z,12.68
2023-05-10T03:47:36.943Z,12.69
2023-05-10T03:50:08.448Z,12.76
2023-05-10T03:52:42.397Z,12.86
2023-05-10T03:55:13.022Z,12.84
2023-05-10T03:57:43.247Z,12.94
2023-05-10T04:00:14.988Z,13.03
2023-05-10T04:02:46.762Z,13.06
2023-05-10T04:05:22.214Z,13.15
2023-05-10T04:07:54.987Z,13.28
2023-05-10T04:10:25.170Z,13.35
2023-05-10T04:12:55.331Z,13.39
2023-05-10T04:15:25.590Z,13.34
2023-05-10T04:17:57.946Z,13.37
2023-05-10T04:20:28.105Z,13.29
2023-05-10T04:23:01.004Z,13.36
2023-05-10T04:25:31.236Z,13.42
2023-05-10T04:28:01.471Z,13.44
2023-05-10T04:30:32.334Z,13.56
2023-05-10T04:33:03.031Z,13.61
2023-05-10T04:35:33.215Z,13.61
2023-05-10T04:38:06.065Z,13.63
2023-05-10T04:40:37.022Z,13.82
2023-05-10T04:43:07.238Z,13.80
2023-05-10T04:45:37.353Z,13.74
2023-05-10T04:48:08.680Z,13.73
2023-05-10T04:50:38.880Z,13.71
2023-05-10T04:53:11.819Z,13.71
2023-05-10T04:55:42.083Z,13.66
2023-05-10T04:58:12.259Z,13.89
2023-05-10T05:00:42.842Z,14.07
2023-05-10T05:03:13.165Z,14.23
2023-05-10T05:05:43.402Z,14.20
2023-05-10T05:08:16.886Z,14.10
2023-05-10T05:10:47.093Z,14.23
2023-05-10T05:13:17.255Z,14.33
2023-05-10T05:15:47.413Z,14.39
2023-05-10T05:18:17.580Z,14.40
2023-05-10T05:20:47.739Z,14.48
2023-05-10T05:23:21.921Z,14.59
2023-05-10T05:25:52.338Z,14.66
2023-05-10T05:28:22.556Z,14.71
2023-05-10T05:30:52.739Z,14.85
2023-05-10T05:33:22.986Z,14.83
2023-05-10T05:35:53.106Z,15.04
2023-05-10T05:38:25.858Z,15.20
2023-05-10T05:40:55.957Z,15.43
2023-05-10T05:43:26.286Z,15.40
2023-05-10T05:45:59.169Z,15.52
2023-05-10T05:48:29.500Z,15.72
2023-05-10T05:51:00.139Z,15.89
2023-05-10T05:53:33.011Z,15.85
2023-05-10T05:56:03.308Z,15.97
2023-05-10T05:58:33.415Z,16.07
2023-05-10T06:01:03.578Z,16.37
2023-05-10T06:03:34.850Z,16.30
2023-05-10T06:06:05.168Z,16.23
2023-05-10T06:08:38.236Z,16.09
2023-05-10T06:11:08.681Z,16.02
2023-05-10T06:13:38.828Z,16.05
2023-05-10T06:16:09.913Z,15.99
2023-05-10T06:18:40.263Z,15.95
2023-05-10T06:21:10.578Z,15.91
2023-05-10T06:23:43.355Z,16.00
2023-05-10T06:26:14.938Z,16.14
2023-05-10T06:28:45.071Z,16.12
2023-05-10T06:31:15.430Z,16.02
2023-05-10T06:33:47.254Z,16.04
2023-05-10T06:36:20.951Z,16.09
2023-05-10T06:38:53.724Z,16.37
2023-05-10T06:41:25.068Z,16.49
2023-05-10T06:43:55.326Z,16.60
2023-05-10T06:46:25.493Z,16.59
2023-05-10T06:48:55.709Z,16.85
2023-05-10T06:51:25.902Z,16.97
2023-05-10T06:53:58.630Z,17.05
2023-05-10T06:56:29.015Z,17.04
2023-05-10T06:59:02.306Z,16.96
2023-05-10T07:01:34.561Z,17.15
2023-05-10T07:04:05.233Z,17.36
2023-05-10T07:06:36.507Z,17.54
2023-05-10T07:09:09.268Z,17.36
2023-05-10T07:11:39.500Z,17.44
2023-05-10T07:14:09.645Z,17.16
2023-05-10T07:16:39.844Z,17.17
2023-05-10T07:19:10.244Z,17.36
2023-05-10T07:21:41.665Z,17.26
2023-05-10T07:24:14.506Z,17.19
2023-05-10T07:26:44.982Z,17.22
2023-05-10T07:29:15.328Z,17.37
2023-05-10T07:31:45.851Z,17.73
2023-05-10T07:34:15.969Z,18.16
2023-05-10T07:36:46.462Z,18.23
2023-05-10T07:39:26.625Z,18.50
2023-05-10T07:41:58.134Z,18.77
2023-05-10T07:44:28.338Z,18.91
2023-05-10T07:46:58.572Z,18.61
2023-05-10T07:49:37.887Z,18.48
2023-05-10T07:52:08.228Z,18.72
2023-05-10T07:54:41.068Z,18.87
2023-05-10T07:57:11.347Z,18.80
2023-05-10T07:59:41.487Z,18.58
2023-05-10T08:02:11.667Z,18.60
2023-05-10T08:04:42.131Z,18.51
2023-05-10T08:07:15.354Z,18.44
2023-05-10T08:09:57.445Z,18.35
2023-05-10T08:12:27.778Z,18.22
2023-05-10T08:14:58.261Z,18.15
2023-05-10T08:17:28.621Z,18.02
2023-05-10T08:19:58.906Z,18.05
2023-05-10T08:22:32.137Z,17.92
2023-05-10T08:25:04.853Z,17.93
2023-05-10T08:27:35.058Z,17.79
2023-05-10T08:30:05.275Z,17.79
2023-05-10T08:32:36.235Z,17.80
2023-05-10T08:35:06.796Z,17.85
2023-05-10T08:37:37.144Z,17.76
2023-05-10T08:40:11.925Z,17.70
2023-05-10T08:42:44.278Z,17.73
2023-05-10T08:45:15.271Z,17.76
2023-05-10T08:47:46.029Z,17.65
2023-05-10T08:50:16.314Z,17.58
2023-05-10T08:52:49.644Z,17.72
2023-05-10T08:55:24.455Z,17.79
2023-05-10T08:57:54.766Z,17.58
2023-05-10T09:00:27.768Z,17.51
2023-05-10T09:02:58.529Z,17.55
2023-05-10T09:05:28.831Z,17.59
2023-05-10T09:08:00.025Z,17.71
2023-05-10T09:10:34.134Z,17.85
2023-05-10T09:13:04.523Z,17.82
2023-05-10T09:15:35.236Z,17.83
2023-05-10T09:18:06.359Z,17.90
2023-05-10T09:20:36.825Z,17.77
2023-05-10T09:23:07.064Z,17.70
2023-05-10T09:25:40.051Z,17.56
2023-05-10T09:28:13.709Z,17.52
2023-05-10T09:30:44.281Z,17.39
2023-05-10T09:33:14.781Z,17.27
2023-05-10T09:35:45.139Z,17.08
2023-05-10T09:38:15.285Z,16.95
2023-05-10T09:40:59.095Z,16.87
2023-05-10T09:43:29.519Z,16.85
2023-05-10T09:45:59.853Z,16.76
2023-05-10T09:48:30.439Z,16.78
2023-05-10T09:51:03.912Z,16.60
2023-05-10T09:53:34.051Z,16.54
2023-05-10T09:56:07.245Z,16.47
2023-05-10T09:58:40.977Z,16.40
2023-05-10T10:01:15.215Z,16.27
2023-05-10T10:03:46.522Z,16.33
2023-05-10T10:06:30.078Z,16.26
2023-05-10T10:09:01.169Z,16.36
2023-05-10T10:11:33.972Z,16.28
2023-05-10T10:14:04.137Z,16.27
2023-05-10T10:16:35.090Z,16.30
2023-05-10T10:19:05.648Z,16.24
2023-05-10T10:21:35.920Z,16.01
2023-05-10T10:24:06.974Z,15.98
2023-05-10T10:26:41.689Z,16.13
2023-05-10T10:29:19.192Z,16.20
2023-05-10T10:31:52.113Z,16.14
2023-05-10T10:34:30.550Z,16.25
2023-05-10T10:37:01.618Z,16.27
2023-05-10T10:39:31.795Z,16.39
2023-05-10T10:42:04.880Z,16.32
2023-05-10T10:44:41.748Z,16.25
2023-05-10T10:47:30.224Z,16.24
2023-05-10T10:50:08.880Z,16.23
2023-05-10T10:52:40.011Z,16.22
2023-05-10T10:55:11.361Z,16.11
2023-05-10T10:57:53.013Z,16.14
2023-05-10T11:00:32.074Z,16.21
2023-05-10T11:03:03.347Z,16.30
2023-05-10T11:05:44.543Z,16.22
2023-05-10T11:08:20.152Z,16.15
2023-05-10T11:11:08.263Z,16.14
2023-05-10T11:13:43.506Z,16.18
2023-05-10T11:16:21.278Z,16.19
2023-05-10T11:19:01.038Z,16.17
2023-05-10T11:21:31.361Z,16.24
2023-05-10T11:24:07.048Z,16.25
2023-05-10T11:26:39.364Z,16.14
2023-05-10T11:29:12.261Z,16.20
2023-05-10T11:31:48.093Z,16.36
2023-05-10T11:34:27.901Z,16.28
2023-05-10T11:36:59.439Z,16.20
2023-05-10T11:39:33.512Z,16.21
2023-05-10T11:42:04.152Z,16.27
2023-05-10T11:44:37.395Z,16.21
2023-05-10T11:47:09.673Z,15.96
2023-05-10T11:49:39.995Z,16.00
2023-05-10T11:52:12.219Z,15.95
2023-05-10T11:54:42.396Z,15.85
2023-05-10T11:57:12.657Z,15.62
2023-05-10T11:59:45.464Z,15.58
2023-05-10T12:02:16.392Z,15.55
2023-05-10T12:04:46.758Z,15.51
2023-05-10T12:07:17.023Z,15.63
2023-05-10T12:09:47.607Z,15.64
2023-05-10T12:12:21.031Z,15.67
2023-05-10T12:14:55.870Z,15.69
2023-05-10T12:17:26.725Z,15.81
2023-05-10T12:19:56.910Z,15.79
2023-05-10T12:22:27.125Z,15.96
2023-05-10T12:24:57.334Z,16.05
2023-05-10T12:27:27.758Z,16.14
2023-05-10T12:30:03.736Z,16.21
2023-05-10T12:32:46.447Z,16.22
2023-05-10T12:35:17.077Z,16.07
2023-05-10T12:37:47.647Z,16.05
2023-05-10T12:40:18.145Z,16.14
2023-05-10T12:42:49.929Z,16.08
2023-05-10T12:45:23.264Z,16.19
2023-05-10T12:47:53.401Z,16.21
2023-05-10T12:50:25.503Z,16.13
2023-05-10T12:52:58.091Z,16.13
2023-05-10T12:55:28.184Z,16.18
2023-05-10T12:57:58.306Z,16.15
2023-05-10T13:00:31.136Z,16.28
2023-05-10T13:03:01.658Z,16.47
2023-05-10T13:05:31.855Z,16.50
2023-05-10T13:08:01.941Z,16.54
2023-05-10T13:10:33.846Z,16.43
2023-05-10T13:13:04.012Z,16.60
2023-05-10T13:15:36.838Z,16.75
2023-05-10T13:18:07.149Z,16.96
2023-05-10T13:20:37.292Z,17.02
2023-05-10T13:23:09.777Z,17.07
2023-05-10T13:25:40.274Z,17.11
2023-05-10T13:28:10.496Z,17.36
2023-05-10T13:30:45.948Z,17.42
2023-05-10T13:33:16.217Z,17.67
2023-05-10T13:35:46.393Z,17.71
2023-05-10T13:38:16.721Z,17.67
2023-05-10T13:40:47.138Z,17.57
2023-05-10T13:43:17.390Z,17.50
2023-05-10T13:45:50.288Z,17.62
2023-05-10T13:48:20.988Z,17.59
2023-05-10T13:50:51.523Z,17.75
2023-05-10T13:53:22.285Z,17.79
2023-05-10T13:55:52.746Z,17.86
2023-05-10T13:58:25.929Z,17.95
2023-05-10T14:01:00.084Z,17.92
2023-05-10T14:03:30.725Z,17.97
2023-05-10T14:06:01.247Z,17.97
2023-05-10T14:08:31.647Z,18.16
2023-05-10T14:11:01.887Z,18.24
2023-05-10T14:13:32.482Z,18.28
2023-05-10T14:16:08.305Z,18.31
2023-05-10T14:18:38.509Z,18.04
2023-05-10T14:21:08.761Z,18.13
2023-05-10T14:23:39.012Z,17.93
2023-05-10T14:26:09.801Z,17.98
2023-05-10T14:28:40.016Z,18.11
2023-05-10T14:31:12.852Z,18.06
2023-05-10T14:33:42.970Z,18.04
2023-05-10T14:36:13.828Z,18.11
2023-05-10T14:38:44.322Z,18.13
2023-05-10T14:41:16.260Z,18.05
2023-05-10T14:43:46.485Z,17.80
2023-05-10T14:46:19.835Z,17.71
2023-05-10T14:48:49.993Z,17.80
2023-05-10T14:51:22.860Z,17.91
2023-05-10T14:53:53.178Z,17.88
2023-05-10T14:56:23.292Z,17.79
2023-05-10T14:58:54.082Z,17.90
2023-05-10T15:01:27.492Z,17.94
2023-05-10T15:03:58.025Z,18.02
2023-05-10T15:06:35.580Z,18.08
2023-05-10T15:09:06.811Z,18.11
2023-05-10T15:11:37.072Z,18.08
2023-05-10T15:14:07.447Z,17.90
2023-05-10T15:16:40.304Z,17.89
2023-05-10T15:19:10.559Z,17.91
2023-05-10T15:21:43.633Z,17.82
2023-05-10T15:24:13.740Z,17.79
2023-05-10T15:26:44.958Z,17.82
2023-05-10T15:29:20.793Z,17.79
2023-05-10T15:31:54.497Z,17.73
2023-05-10T15:34:24.835Z,17.72
2023-05-10T15:36:54.952Z,17.72
2023-05-10T15:39:25.192Z,17.73
2023-05-10T15:41:55.359Z,17.65
2023-05-10T15:44:25.493Z,17.70
2023-05-10T15:46:58.445Z,17.73
2023-05-10T15:49:28.718Z,17.81
2023-05-10T15:51:58.845Z,17.80
2023-05-10T15:54:29.150Z,17.81
2023-05-10T15:57:00.433Z,17.87
2023-05-10T15:59:30.733Z,17.83
2023-05-10T16:02:04.595Z,17.75
2023-05-10T16:04:34.727Z,17.81
2023-05-10T16:07:04.978Z,17.79
2023-05-10T16:09:35.075Z,17.69
2023-05-10T16:12:05.594Z,17.83
2023-05-10T16:14:37.378Z,17.81
2023-05-10T16:17:10.633Z,17.79
2023-05-10T16:19:41.246Z,17.76
2023-05-10T16:22:11.498Z,17.80
2023-05-10T16:24:42.644Z,17.83
2023-05-10T16:27:13.453Z,17.71
2023-05-10T16:29:43.565Z,17.70
2023-05-10T16:32:16.344Z,17.62
2023-05-10T16:34:46.494Z,17.57
2023-05-10T16:37:16.874Z,17.54
2023-05-10T16:39:47.307Z,17.44
2023-05-10T16:42:17.800Z,17.26
2023-05-10T16:44:48.060Z,17.15
2023-05-10T16:47:20.849Z,17.06
2023-05-10T16:49:51.259Z,17.04
2023-05-10T16:52:21.537Z,17.01
2023-05-10T16:54:51.705Z,16.96
2023-05-10T16:57:22.140Z,16.99
2023-05-10T16:59:53.563Z,16.93
2023-05-10T17:02:26.502Z,16.97
2023-05-10T17:04:57.030Z,16.85
2023-05-10T17:07:29.596Z,16.84
2023-05-10T17:09:59.796Z,16.91
2023-05-10T17:12:30.041Z,16.81
2023-05-10T17:15:00.409Z,16.81
2023-05-10T17:17:33.281Z,16.79
2023-05-10T17:20:04.370Z,16.79
2023-05-10T17:22:34.549Z,16.65
2023-05-10T17:25:04.609Z,16.60
2023-05-10T17:27:34.958Z,16.69
2023-05-10T17:30:05.400Z,16.76
2023-05-10T17:32:38.183Z,16.75
2023-05-10T17:35:10.058Z,16.73
2023-05-10T17:37:40.331Z,16.74
2023-05-10T17:40:12.314Z,16.68
2023-05-10T17:42:42.935Z,16.66
2023-05-10T17:45:13.919Z,16.67
2023-05-10T17:47:46.731Z,16.64
2023-05-10T17:50:16.897Z,16.61
2023-05-10T17:52:47.047Z,16.65
2023-05-10T17:55:17.699Z,16.58
2023-05-10T17:57:49.922Z,16.54
2023-05-10T18:00:21.671Z,16.42
2023-05-10T18:02:54.512Z,16.43
2023-05-10T18:05:24.905Z,16.35
2023-05-10T18:07:55.161Z,16.34
2023-05-10T18:10:25.511Z,16.42
2023-05-10T18:12:55.668Z,16.44
2023-05-10T18:15:25.996Z,16.47
2023-05-10T18:17:58.870Z,16.51
2023-05-10T18:20:29.025Z,16.62
2023-05-10T18:22:59.340Z,16.61
2023-05-10T18:25:29.804Z,16.60
2023-05-10T18:28:00.112Z,16.61
2023-05-10T18:30:30.294Z,16.64
2023-05-10T18:33:03.072Z,16.69
2023-05-10T18:35:35.507Z,16.65
2023-05-10T18:38:05.779Z,16.66
2023-05-10T18:40:35.956Z,16.63
2023-05-10T18:43:06.305Z,16.64
2023-05-10T18:45:36.479Z,16.67
2023-05-10T18:48:09.653Z,16.65
2023-05-10T18:50:39.808Z,16.67
2023-05-10T18:53:09.996Z,16.67
2023-05-10T18:55:40.142Z,16.68
2023-05-10T18:58:10.315Z,16.68
2023-05-10T19:00:40.650Z,16.69
2023-05-10T19:03:13.490Z,16.74
2023-05-10T19:05:43.798Z,16.68
2023-05-10T19:08:13.930Z,16.67
2023-05-10T19:10:44.088Z,16.71
2023-05-10T19:13:15.209Z,16.72
2023-05-10T19:15:45.440Z,16.66
2023-05-10T19:18:21.183Z,16.67
2023-05-10T19:20:52.541Z,16.70
2023-05-10T19:23:25.603Z,16.67
2023-05-10T19:25:58.618Z,16.65
2023-05-10T19:28:29.438Z,16.66
2023-05-10T19:30:59.940Z,16.62
2023-05-10T19:33:33.086Z,16.64
2023-05-10T19:36:03.395Z,16.64
2023-05-10T19:38:33.587Z,16.64
2023-05-10T19:41:04.094Z,16.64
2023-05-10T19:43:35.520Z,16.63
2023-05-10T19:46:06.005Z,16.65
2023-05-10T19:48:39.169Z,16.62
2023-05-10T19:51:10.266Z,16.61
2023-05-10T19:53:44.278Z,16.55
2023-05-10T19:56:14.525Z,16.56
2023-05-10T19:58:44.700Z,16.51
2023-05-10T20:01:14.898Z,16.50
2023-05-10T20:03:47.842Z,16.48
2023-05-10T20:06:18.037Z,16.48
2023-05-10T20:08:48.228Z,16.51
2023-05-10T20:11:18.422Z,16.52
2023-05-10T20:13:48.839Z,16.51
2023-05-10T20:16:19.000Z,16.43
2023-05-10T20:18:53.705Z,16.38
2023-05-10T20:21:26.674Z,16.35
2023-05-10T20:23:56.915Z,16.34
2023-05-10T20:26:27.092Z,16.31
2023-05-10T20:28:57.189Z,16.36
2023-05-10T20:31:27.419Z,16.37
2023-05-10T20:34:00.207Z,16.35
2023-05-10T20:36:30.419Z,16.36
2023-05-10T20:39:00.545Z,16.36
2023-05-10T20:41:30.734Z,16.33
2023-05-10T20:44:00.882Z,16.31
2023-05-10T20:46:31.152Z,16.32
2023-05-10T20:49:04.414Z,16.34
2023-05-10T20:51:34.543Z,16.38
2023-05-10T20:54:05.050Z,16.39
2023-05-10T20:56:35.303Z,16.39
2023-05-10T20:59:05.511Z,16.40
2023-05-10T21:01:35.872Z,16.42
2023-05-10T21:04:08.778Z,16.41
2023-05-10T21:06:39.260Z,16.41
2023-05-10T21:09:10.000Z,16.37
2023-05-10T21:11:40.529Z,16.36
2023-05-10T21:14:10.836Z,16.38
2023-05-10T21:16:41.471Z,16.35
2023-05-10T21:19:14.867Z,16.33
2023-05-10T21:21:45.030Z,16.29
2023-05-10T21:24:15.521Z,16.33
2023-05-10T21:26:45.700Z,16.32
2023-05-10T21:29:15.888Z,16.34
2023-05-10T21:31:46.059Z,16.35
2023-05-10T21:34:18.865Z,16.35
2023-05-10T21:36:49.063Z,16.35
2023-05-10T21:39:19.293Z,16.33
2023-05-10T21:41:49.452Z,16.31
2023-05-10T21:44:19.893Z,16.23
2023-05-10T21:46:50.043Z,16.25
2023-05-10T21:49:22.860Z,16.29
2023-05-10T21:51:53.513Z,16.30
2023-05-10T21:54:23.852Z,16.31
2023-05-10T21:56:54.051Z,16.26
2023-05-10T21:59:24.329Z,16.25
2023-05-10T22:01:54.522Z,16.23
2023-05-10T22:04:27.372Z,16.24
2023-05-10T22:06:57.618Z,16.25
2023-05-10T22:09:27.796Z,16.27
2023-05-10T22:11:57.944Z,16.26
2023-05-10T22:14:28.154Z,16.28
2023-05-10T22:16:58.442Z,16.31
2023-05-10T22:19:31.188Z,16.28
2023-05-10T22:22:01.349Z,16.27
2023-05-10T22:24:31.624Z,16.27
2023-05-10T22:27:02.057Z,16.22
2023-05-10T22:29:32.653Z,16.17
2023-05-10T22:32:05.853Z,16.14
2023-05-10T22:34:39.064Z,16.18
2023-05-10T22:37:09.256Z,16.19
2023-05-10T22:39:39.388Z,16.15
2023-05-10T22:42:09.560Z,16.14
2023-05-10T22:44:39.902Z,16.14
2023-05-10T22:47:10.093Z,16.11
2023-05-10T22:49:42.913Z,16.12
2023-05-10T22:52:13.419Z,16.11
2023-05-10T22:54:44.504Z,16.11
2023-05-10T22:57:15.333Z,16.08
2023-05-10T22:59:45.553Z,16.07
2023-05-10T23:02:16.431Z,16.05
2023-05-10T23:04:49.455Z,16.03
2023-05-10T23:07:19.695Z,16.05
2023-05-10T23:09:50.870Z,16.09
2023-05-10T23:12:21.243Z,16.11
2023-05-10T23:14:55.149Z,16.16
2023-05-10T23:17:26.029Z,16.21
2023-05-10T23:19:59.466Z,16.19
2023-05-10T23:22:30.352Z,16.20
2023-05-10T23:25:01.328Z,16.18
2023-05-10T23:27:32.864Z,16.16
2023-05-10T23:30:06.048Z,16.14
2023-05-10T23:32:36.855Z,16.11
2023-05-10T23:35:11.926Z,16.10
2023-05-10T23:37:42.678Z,16.07
2023-05-10T23:40:14.383Z,16.07
2023-05-10T23:42:44.589Z,16.13
2023-05-10T23:45:15.133Z,16.14
2023-05-10T23:47:45.346Z,16.17
2023-05-10T23:50:18.437Z,16.10
2023-05-10T23:52:49.047Z,16.14
2023-05-10T23:55:19.572Z,16.11
2023-05-10T23:57:52.577Z,16.11
